createdAt,value
2017-07-16T00:00:58.330Z,0
2017-07-16T00:02:00.442Z,0
2017-07-16T00:03:02.756Z,0
2017-07-16T00:04:04.853Z,0
2017-07-16T00:05:06.863Z,0
2017-07-16T00:06:08.905Z,0
2017-07-16T00:07:10.974Z,0
2017-07-16T00:08:13.424Z,0
2017-07-16T00:09:16.522Z,0
2017-07-16T00:10:18.534Z,0
2017-07-16T00:11:21.257Z,0
2017-07-16T00:12:23.368Z,0
2017-07-16T00:13:28.249Z,0
2017-07-16T00:14:30.320Z,0
2017-07-16T00:15:32.355Z,0
2017-07-16T00:16:34.405Z,0
2017-07-16T00:17:38.581Z,0
2017-07-16T00:18:41.055Z,0
2017-07-16T00:19:43.123Z,0
2017-07-16T00:20:45.281Z,0
2017-07-16T00:21:47.354Z,0
2017-07-16T00:22:49.396Z,0
2017-07-16T00:23:53.530Z,0
2017-07-16T00:24:56.207Z,0
2017-07-16T00:25:58.222Z,0
2017-07-16T00:27:00.331Z,0
2017-07-16T00:28:02.434Z,0
2017-07-16T00:29:04.948Z,0
2017-07-16T00:30:06.989Z,0
2017-07-16T00:31:09.037Z,0
2017-07-16T00:32:11.168Z,0
2017-07-16T00:33:13.249Z,0
2017-07-16T00:34:15.673Z,0
2017-07-16T00:35:17.782Z,0
2017-07-16T00:36:19.875Z,0
2017-07-16T00:37:21.970Z,0
2017-07-16T00:38:24.030Z,0
2017-07-16T00:39:26.525Z,0
2017-07-16T00:40:28.544Z,0
2017-07-16T00:41:30.581Z,0
2017-07-16T00:42:32.576Z,0
2017-07-16T00:43:34.635Z,0
2017-07-16T00:44:36.994Z,0
2017-07-16T00:45:38.972Z,0
2017-07-16T00:46:41.008Z,0
2017-07-16T00:47:42.965Z,0
2017-07-16T00:48:45.010Z,0
2017-07-16T00:49:47.277Z,0
2017-07-16T00:50:49.285Z,0
2017-07-16T00:51:51.398Z,0
2017-07-16T00:52:53.357Z,0
2017-07-16T00:53:55.492Z,0
2017-07-16T00:54:57.897Z,0
2017-07-16T00:55:59.965Z,0
2017-07-16T00:57:01.957Z,0
2017-07-16T00:58:03.993Z,0
2017-07-16T00:59:05.920Z,0
2017-07-16T01:00:09.252Z,0
2017-07-16T01:01:11.220Z,0
2017-07-16T01:02:13.303Z,0
2017-07-16T01:03:15.260Z,0
2017-07-16T01:04:17.255Z,0
2017-07-16T01:05:19.564Z,0
2017-07-16T01:06:21.567Z,0
2017-07-16T01:07:23.529Z,0
2017-07-16T01:08:25.510Z,0
2017-07-16T01:09:27.567Z,0
2017-07-16T01:10:29.884Z,0
2017-07-16T01:11:31.913Z,0
2017-07-16T01:12:33.949Z,0
2017-07-16T01:13:35.947Z,0
2017-07-16T01:14:37.952Z,0
2017-07-16T01:15:40.251Z,0
2017-07-16T01:16:42.361Z,0
2017-07-16T01:17:44.346Z,0
2017-07-16T01:18:46.405Z,0
2017-07-16T01:19:48.447Z,0
2017-07-16T01:20:51.555Z,0
2017-07-16T01:21:53.501Z,0
2017-07-16T01:22:55.658Z,0
2017-07-16T01:23:58.121Z,0
2017-07-16T01:25:00.196Z,0
2017-07-16T01:26:02.710Z,0
2017-07-16T01:27:04.676Z,0
2017-07-16T01:28:06.738Z,0
2017-07-16T01:29:08.884Z,0
2017-07-16T01:30:10.919Z,0
2017-07-16T01:31:13.324Z,0
2017-07-16T01:32:15.305Z,0
2017-07-16T01:33:17.416Z,0
2017-07-16T01:34:19.417Z,0
2017-07-16T01:35:21.403Z,0
2017-07-16T01:36:23.599Z,0
2017-07-16T01:37:25.641Z,0
2017-07-16T01:38:27.667Z,0
2017-07-16T01:39:29.653Z,0
2017-07-16T01:40:31.646Z,0
2017-07-16T01:41:33.863Z,0
2017-07-16T01:42:35.921Z,0
2017-07-16T01:43:37.925Z,0
2017-07-16T01:44:39.922Z,0
2017-07-16T01:45:41.909Z,0
2017-07-16T01:46:44.219Z,0
2017-07-16T01:47:46.254Z,0
2017-07-16T01:48:48.294Z,0
2017-07-16T01:49:50.305Z,0
2017-07-16T01:50:52.263Z,0
2017-07-16T01:51:54.597Z,0
2017-07-16T01:52:56.625Z,0
2017-07-16T01:53:58.629Z,0
2017-07-16T01:55:00.658Z,0
2017-07-16T01:56:02.697Z,0
2017-07-16T01:57:04.894Z,0
2017-07-16T01:58:06.925Z,0
2017-07-16T01:59:09.764Z,0
2017-07-16T02:00:11.838Z,0
2017-07-16T02:01:13.826Z,0
2017-07-16T02:02:16.266Z,0
2017-07-16T02:03:18.887Z,0
2017-07-16T02:04:20.920Z,0
2017-07-16T02:05:22.873Z,0
2017-07-16T02:06:25.708Z,0
2017-07-16T02:07:28.003Z,0
2017-07-16T02:08:30.093Z,0
2017-07-16T02:09:32.525Z,0
2017-07-16T02:10:34.605Z,0
2017-07-16T02:11:36.650Z,0
2017-07-16T02:12:39.431Z,0
2017-07-16T02:13:41.425Z,0
2017-07-16T02:14:43.447Z,0
2017-07-16T02:15:45.399Z,0
2017-07-16T02:16:47.478Z,0
2017-07-16T02:17:51.489Z,0
2017-07-16T02:18:54.322Z,0
2017-07-16T02:19:57.733Z,0
2017-07-16T02:20:59.839Z,0
2017-07-16T02:22:04.447Z,0
2017-07-16T02:23:06.763Z,0
2017-07-16T02:24:08.803Z,0
2017-07-16T02:25:10.745Z,0
2017-07-16T02:26:12.789Z,0
2017-07-16T02:27:14.774Z,0
2017-07-16T02:28:17.927Z,0
2017-07-16T02:29:19.885Z,0
2017-07-16T02:30:25.127Z,0
2017-07-16T02:31:27.176Z,0
2017-07-16T02:32:29.115Z,0
2017-07-16T02:33:32.163Z,0
2017-07-16T02:34:34.688Z,0
2017-07-16T02:35:36.750Z,0
2017-07-16T02:36:38.748Z,0
2017-07-16T02:37:40.760Z,0
2017-07-16T02:38:45.297Z,0
2017-07-16T02:39:47.234Z,0
2017-07-16T02:40:51.355Z,0
2017-07-16T02:41:54.051Z,0
2017-07-16T02:42:57.448Z,0
2017-07-16T02:43:59.825Z,0
2017-07-16T02:45:01.754Z,0
2017-07-16T02:46:03.682Z,0
2017-07-16T02:47:08.246Z,0
2017-07-16T02:48:10.269Z,0
2017-07-16T02:49:14.293Z,0
2017-07-16T02:50:16.289Z,0
2017-07-16T02:51:20.403Z,0
2017-07-16T02:52:22.444Z,0
2017-07-16T02:53:24.930Z,0
2017-07-16T02:54:27.285Z,0
2017-07-16T02:55:32.436Z,0
2017-07-16T02:56:35.238Z,0
2017-07-16T02:57:38.940Z,0
2017-07-16T02:58:40.939Z,4
2017-07-16T02:59:45.101Z,4
2017-07-16T03:00:47.090Z,0
2017-07-16T03:01:51.189Z,0
2017-07-16T03:02:53.230Z,4
2017-07-16T03:03:57.741Z,4
2017-07-16T03:05:00.259Z,0
2017-07-16T03:06:02.289Z,4
2017-07-16T03:07:04.225Z,4
2017-07-16T03:08:06.204Z,4
2017-07-16T03:09:08.163Z,4
2017-07-16T03:10:12.418Z,8
2017-07-16T03:11:14.441Z,8
2017-07-16T03:12:16.592Z,8
2017-07-16T03:13:19.134Z,8
2017-07-16T03:14:25.075Z,8
2017-07-16T03:15:27.562Z,12
2017-07-16T03:16:30.225Z,12
2017-07-16T03:17:32.246Z,12
2017-07-16T03:18:36.471Z,12
2017-07-16T03:19:38.453Z,16
2017-07-16T03:20:40.803Z,16
2017-07-16T03:21:42.789Z,16
2017-07-16T03:22:44.759Z,20
2017-07-16T03:23:46.757Z,20
2017-07-16T03:24:51.507Z,24
2017-07-16T03:25:53.855Z,28
2017-07-16T03:26:56.783Z,24
2017-07-16T03:27:58.762Z,28
2017-07-16T03:29:00.822Z,28
2017-07-16T03:30:03.346Z,32
2017-07-16T03:31:06.011Z,36
2017-07-16T03:32:08.041Z,36
2017-07-16T03:33:11.964Z,40
2017-07-16T03:34:13.919Z,44
2017-07-16T03:35:18.037Z,44
2017-07-16T03:36:20.292Z,48
2017-07-16T03:37:22.825Z,48
2017-07-16T03:38:24.795Z,52
2017-07-16T03:39:26.771Z,56
2017-07-16T03:40:28.821Z,56
2017-07-16T03:41:31.148Z,60
2017-07-16T03:42:33.237Z,60
2017-07-16T03:43:37.586Z,64
2017-07-16T03:44:40.116Z,64
2017-07-16T03:45:42.941Z,68
2017-07-16T03:46:45.302Z,72
2017-07-16T03:47:47.285Z,76
2017-07-16T03:48:49.281Z,76
2017-07-16T03:49:53.404Z,88
2017-07-16T03:50:56.018Z,92
2017-07-16T03:51:58.328Z,96
2017-07-16T03:53:00.356Z,100
2017-07-16T03:54:02.355Z,104
2017-07-16T03:55:05.278Z,112
2017-07-16T03:56:07.688Z,116
2017-07-16T03:57:10.017Z,120
2017-07-16T03:58:12.051Z,128
2017-07-16T03:59:14.050Z,132
2017-07-16T04:00:18.305Z,140
2017-07-16T04:01:20.381Z,144
2017-07-16T04:02:24.422Z,144
2017-07-16T04:03:26.449Z,148
2017-07-16T04:04:30.383Z,148
2017-07-16T04:05:32.391Z,152
2017-07-16T04:06:36.659Z,152
2017-07-16T04:07:38.977Z,160
2017-07-16T04:08:40.940Z,164
2017-07-16T04:09:42.935Z,168
2017-07-16T04:10:47.003Z,176
2017-07-16T04:11:48.984Z,184
2017-07-16T04:12:53.162Z,196
2017-07-16T04:13:55.152Z,208
2017-07-16T04:14:57.753Z,216
2017-07-16T04:15:59.693Z,220
2017-07-16T04:17:05.793Z,224
2017-07-16T04:18:08.116Z,228
2017-07-16T04:19:11.069Z,228
2017-07-16T04:20:13.029Z,240
2017-07-16T04:21:17.102Z,248
2017-07-16T04:22:19.168Z,260
2017-07-16T04:23:23.330Z,272
2017-07-16T04:24:25.305Z,284
2017-07-16T04:25:29.347Z,280
2017-07-16T04:26:31.320Z,280
2017-07-16T04:27:35.494Z,280
2017-07-16T04:28:37.984Z,280
2017-07-16T04:29:40.031Z,292
2017-07-16T04:30:42.011Z,304
2017-07-16T04:31:44.054Z,320
2017-07-16T04:32:46.047Z,332
2017-07-16T04:33:50.355Z,336
2017-07-16T04:34:52.403Z,332
2017-07-16T04:35:54.425Z,344
2017-07-16T04:36:56.391Z,364
2017-07-16T04:37:59.296Z,376
2017-07-16T04:39:01.672Z,376
2017-07-16T04:40:05.264Z,376
2017-07-16T04:41:08.061Z,376
2017-07-16T04:42:11.451Z,376
2017-07-16T04:43:13.562Z,372
2017-07-16T04:44:17.660Z,384
2017-07-16T04:45:19.733Z,396
2017-07-16T04:46:23.702Z,412
2017-07-16T04:47:25.731Z,416
2017-07-16T04:48:29.840Z,424
2017-07-16T04:49:32.401Z,436
2017-07-16T04:50:34.525Z,452
2017-07-16T04:51:36.579Z,472
2017-07-16T04:52:38.805Z,488
2017-07-16T04:53:40.995Z,500
2017-07-16T04:54:43.528Z,516
2017-07-16T04:55:45.648Z,524
2017-07-16T04:56:47.747Z,532
2017-07-16T04:57:49.880Z,540
2017-07-16T04:58:52.079Z,540
2017-07-16T04:59:54.558Z,548
2017-07-16T05:00:56.713Z,560
2017-07-16T05:01:59.613Z,560
2017-07-16T05:03:01.717Z,560
2017-07-16T05:04:03.787Z,560
2017-07-16T05:05:06.901Z,552
2017-07-16T05:06:09.010Z,548
2017-07-16T05:07:11.065Z,552
2017-07-16T05:08:13.083Z,560
2017-07-16T05:09:18.356Z,560
2017-07-16T05:10:20.843Z,572
2017-07-16T05:11:23.207Z,592
2017-07-16T05:12:25.352Z,616
2017-07-16T05:13:29.303Z,632
2017-07-16T05:14:31.464Z,628
2017-07-16T05:15:35.290Z,616
2017-07-16T05:16:37.420Z,592
2017-07-16T05:17:41.619Z,576
2017-07-16T05:18:43.664Z,556
2017-07-16T05:19:45.759Z,544
2017-07-16T05:20:48.773Z,548
2017-07-16T05:21:51.623Z,556
2017-07-16T05:22:53.608Z,560
2017-07-16T05:23:56.161Z,564
2017-07-16T05:24:58.296Z,564
2017-07-16T05:26:00.678Z,572
2017-07-16T05:27:02.792Z,568
2017-07-16T05:28:04.839Z,568
2017-07-16T05:29:06.897Z,576
2017-07-16T05:30:11.111Z,572
2017-07-16T05:31:13.426Z,576
2017-07-16T05:32:15.575Z,584
2017-07-16T05:33:18.385Z,600
2017-07-16T05:34:20.528Z,616
2017-07-16T05:35:22.710Z,644
2017-07-16T05:36:25.139Z,664
2017-07-16T05:37:27.429Z,680
2017-07-16T05:38:29.765Z,692
2017-07-16T05:39:32.267Z,712
2017-07-16T05:40:34.379Z,720
2017-07-16T05:41:36.845Z,724
2017-07-16T05:42:38.884Z,724
2017-07-16T05:43:41.024Z,748
2017-07-16T05:44:43.093Z,776
2017-07-16T05:45:45.256Z,804
2017-07-16T05:46:47.639Z,856
2017-07-16T05:47:49.733Z,928
2017-07-16T05:48:51.854Z,1008
2017-07-16T05:49:53.981Z,1020
2017-07-16T05:50:56.145Z,984
2017-07-16T05:51:59.149Z,980
2017-07-16T07:39:18.268Z,1120
2017-07-16T07:40:30.198Z,1192
2017-07-16T07:41:44.537Z,1012
2017-07-16T07:42:52.676Z,972
2017-07-16T07:43:57.642Z,996
2017-07-16T07:45:01.963Z,1012
2017-07-16T07:46:03.917Z,1116
2017-07-16T07:47:05.957Z,1004
2017-07-16T07:48:07.965Z,1132
2017-07-16T07:49:09.976Z,1160
2017-07-16T07:50:12.486Z,988
2017-07-16T07:51:14.522Z,996
2017-07-16T07:54:56.860Z,1176
2017-07-16T07:56:10.930Z,1232
2017-07-16T07:57:14.298Z,1224
2017-07-16T08:11:49.464Z,2548
2017-07-16T08:36:23.974Z,2576
2017-07-16T08:53:45.117Z,2772
2017-07-16T08:54:47.099Z,3012
2017-07-16T08:55:49.728Z,3632
2017-07-16T08:56:53.631Z,3740
2017-07-16T08:57:56.432Z,3500
2017-07-16T08:59:00.843Z,2692
2017-07-16T09:00:02.934Z,2468
2017-07-16T09:01:07.008Z,2260
2017-07-16T09:05:12.496Z,1740
2017-07-16T09:06:38.548Z,2348
2017-07-16T09:07:48.211Z,2764
2017-07-16T09:08:58.616Z,2512
2017-07-16T09:10:07.813Z,2884
2017-07-16T09:11:11.369Z,2808
2017-07-16T09:12:14.217Z,2760
2017-07-16T09:13:18.512Z,2940
2017-07-16T09:14:20.838Z,2436
2017-07-16T09:15:24.455Z,2544
2017-07-16T09:16:26.485Z,2344
2017-07-16T09:17:28.521Z,2912
2017-07-16T09:18:38.160Z,2344
2017-07-16T09:19:40.208Z,2252
2017-07-16T09:20:42.681Z,1784
2017-07-16T09:21:44.674Z,1736
2017-07-16T09:22:48.679Z,1776
2017-07-16T09:23:50.690Z,1764
2017-07-16T09:24:52.836Z,1532
2017-07-16T09:25:55.227Z,1592
2017-07-16T09:26:57.199Z,1536
2017-07-16T09:27:59.226Z,1952
2017-07-16T09:29:01.786Z,1724
2017-07-16T09:30:03.839Z,1804
2017-07-16T09:31:06.609Z,1480
2017-07-16T09:32:08.634Z,1484
2017-07-16T09:33:11.542Z,1088
2017-07-16T09:34:13.833Z,1104
2017-07-16T09:35:17.566Z,944
2017-07-16T09:36:19.923Z,1220
2017-07-16T09:37:21.994Z,1216
2017-07-16T09:38:23.967Z,1268
2017-07-16T09:39:26.349Z,1068
2017-07-16T09:40:28.584Z,1288
2017-07-16T09:41:31.413Z,1444
2017-07-16T09:42:33.521Z,1768
2017-07-16T09:43:35.702Z,1708
2017-07-16T09:44:39.468Z,1580
2017-07-16T09:45:41.390Z,1552
2017-07-16T09:46:43.683Z,1464
2017-07-16T09:47:46.439Z,1364
2017-07-16T09:48:48.418Z,1376
2017-07-16T09:53:02.242Z,1256
2017-07-16T09:54:08.173Z,1188
2017-07-16T09:55:13.287Z,1188
2017-07-16T09:56:15.304Z,1376
2017-07-16T09:57:20.241Z,1324
2017-07-16T09:58:22.709Z,1380
2017-07-16T09:59:24.736Z,1504
2017-07-16T10:00:26.831Z,1316
2017-07-16T10:01:28.873Z,1392
2017-07-16T10:02:35.214Z,1548
2017-07-16T10:05:39.281Z,1796
2017-07-16T10:06:55.690Z,1372
2017-07-16T10:10:40.093Z,1900
2017-07-16T10:11:44.931Z,1912
2017-07-16T10:12:47.344Z,1932
2017-07-16T10:13:54.057Z,1800
2017-07-16T10:14:57.789Z,1808
2017-07-16T10:16:06.298Z,1692
2017-07-16T10:17:08.288Z,1532
2017-07-16T10:18:13.688Z,1376
2017-07-16T10:20:16.495Z,1396
2017-07-16T10:21:39.665Z,1556
2017-07-16T10:26:33.105Z,2980
2017-07-16T10:27:36.355Z,2692
2017-07-16T10:28:41.143Z,2556
2017-07-16T10:29:43.297Z,2572
2017-07-16T10:30:45.809Z,2624
2017-07-16T10:31:48.243Z,2664
2017-07-16T10:32:52.084Z,2416
2017-07-16T10:41:26.949Z,1928
2017-07-16T11:03:53.221Z,2700
2017-07-16T11:05:01.389Z,2904
2017-07-16T11:11:56.160Z,3328
2017-07-16T11:16:59.044Z,2784
2017-07-16T11:18:06.804Z,2352
2017-07-16T11:19:08.991Z,2432
2017-07-16T11:20:15.701Z,2116
2017-07-16T11:29:11.168Z,2264
2017-07-16T11:30:17.996Z,2360
2017-07-16T11:32:25.496Z,2540
2017-07-16T11:35:47.926Z,3364
2017-07-16T11:47:42.525Z,3744
2017-07-16T11:48:47.742Z,3660
2017-07-16T11:54:45.913Z,2748
2017-07-16T11:55:51.901Z,2324
2017-07-16T11:56:55.633Z,2456
2017-07-16T11:57:57.577Z,2792
2017-07-16T11:59:00.447Z,2856
2017-07-16T12:00:03.858Z,2896
2017-07-16T12:01:05.880Z,3824
2017-07-16T12:02:07.985Z,3152
2017-07-16T12:03:11.655Z,3544
2017-07-16T12:04:14.661Z,3912
2017-07-16T12:05:17.204Z,3688
2017-07-16T12:06:19.163Z,3372
2017-07-16T12:07:21.405Z,2964
2017-07-16T12:08:23.714Z,2896
2017-07-16T12:09:27.476Z,2616
2017-07-16T12:10:29.817Z,2524
2017-07-16T12:11:32.263Z,2604
2017-07-16T12:12:34.315Z,2912
2017-07-16T12:13:36.857Z,2840
2017-07-16T12:14:38.868Z,2840
2017-07-16T12:15:43.260Z,3048
2017-07-16T12:16:45.666Z,3056
2017-07-16T12:17:47.745Z,3204
2017-07-16T12:18:49.836Z,3316
2017-07-16T12:19:51.979Z,2732
2017-07-16T12:20:54.648Z,3320
2017-07-16T12:21:56.409Z,4364
2017-07-16T12:22:59.222Z,4456
2017-07-16T12:24:02.238Z,4360
2017-07-16T12:25:04.376Z,4344
2017-07-16T12:26:07.413Z,4428
2017-07-16T12:27:12.231Z,4344
2017-07-16T12:28:14.021Z,5064
2017-07-16T12:29:16.677Z,4676
2017-07-16T12:30:18.977Z,5560
2017-07-16T12:31:21.737Z,5732
2017-07-16T12:32:24.000Z,4528
2017-07-16T12:33:26.119Z,5588
2017-07-16T12:34:28.139Z,4796
2017-07-16T12:35:31.369Z,4324
2017-07-16T12:36:33.754Z,4516
2017-07-16T12:37:35.786Z,5040
2017-07-16T12:38:41.476Z,6520
2017-07-16T12:39:43.413Z,5692
2017-07-16T12:40:46.446Z,4960
2017-07-16T12:41:51.819Z,4400
2017-07-16T12:42:54.978Z,5716
2017-07-16T12:43:57.003Z,5324
2017-07-16T12:45:01.597Z,4180
2017-07-16T12:46:03.590Z,3584
2017-07-16T12:47:06.293Z,3224
2017-07-16T12:48:08.722Z,3280
2017-07-16T12:49:11.337Z,2732
2017-07-16T12:50:16.054Z,2484
2017-07-16T12:51:18.378Z,2376
2017-07-16T12:52:20.730Z,2588
2017-07-16T12:53:22.772Z,2588
2017-07-16T12:54:24.838Z,2292
2017-07-16T12:55:26.901Z,2196
2017-07-16T12:56:31.399Z,2552
2017-07-16T12:57:35.980Z,2256
2017-07-16T12:58:38.865Z,2064
2017-07-16T12:59:41.245Z,1876
2017-07-16T13:00:43.064Z,2096
2017-07-16T13:01:45.109Z,2356
2017-07-16T13:02:47.687Z,2244
2017-07-16T13:03:49.661Z,2252
2017-07-16T13:04:52.183Z,2208
2017-07-16T13:06:01.575Z,2100
2017-07-16T13:07:05.569Z,2416
2017-07-16T13:08:08.605Z,2212
2017-07-16T13:09:10.367Z,2100
2017-07-16T13:10:12.386Z,2068
2017-07-16T13:11:15.732Z,1788
2017-07-16T13:12:19.217Z,1988
2017-07-16T13:13:23.732Z,1948
2017-07-16T13:14:25.625Z,1800
2017-07-16T13:15:27.447Z,1660
2017-07-16T13:16:29.268Z,1632
2017-07-16T13:17:32.550Z,1540
2017-07-16T13:18:34.802Z,1456
2017-07-16T13:19:36.720Z,1416
2017-07-16T13:20:43.459Z,1508
2017-07-16T13:21:45.405Z,1464
2017-07-16T13:22:47.303Z,1544
2017-07-16T13:23:49.602Z,1684
2017-07-16T13:24:51.514Z,1768
2017-07-16T13:25:53.377Z,1772
2017-07-16T13:26:55.944Z,1724
2017-07-16T13:27:57.968Z,1656
2017-07-16T13:29:00.218Z,1880
2017-07-16T13:30:02.837Z,1676
2017-07-16T13:31:04.786Z,1404
2017-07-16T13:32:06.614Z,1204
2017-07-16T13:33:08.567Z,1096
2017-07-16T13:34:11.278Z,1012
2017-07-16T13:35:13.023Z,888
2017-07-16T13:36:16.043Z,920
2017-07-16T13:37:18.019Z,960
2017-07-16T13:38:21.058Z,996
2017-07-16T13:39:23.546Z,1052
2017-07-16T13:40:26.960Z,1088
2017-07-16T13:41:29.770Z,1128
2017-07-16T13:42:32.375Z,1208
2017-07-16T13:43:34.318Z,1220
2017-07-16T13:44:36.863Z,1232
2017-07-16T13:45:38.817Z,1308
2017-07-16T13:46:40.797Z,1192
2017-07-16T13:47:43.319Z,1304
2017-07-16T13:48:45.371Z,1352
2017-07-16T13:49:47.613Z,1360
2017-07-16T13:50:49.604Z,1272
2017-07-16T13:51:51.869Z,1260
2017-07-16T13:52:55.376Z,1360
2017-07-16T13:53:57.876Z,1564
2017-07-16T13:55:01.761Z,1660
2017-07-16T13:56:05.296Z,1660
2017-07-16T13:57:07.330Z,1780
2017-07-16T13:58:09.689Z,1840
2017-07-16T13:59:11.860Z,1688
2017-07-16T14:00:14.198Z,1504
2017-07-16T14:01:16.929Z,1268
2017-07-16T14:02:18.672Z,1056
2017-07-16T14:03:20.582Z,1084
2017-07-16T14:04:22.424Z,912
2017-07-16T14:05:26.913Z,936
2017-07-16T14:06:28.990Z,860
2017-07-16T14:07:31.521Z,868
2017-07-16T14:08:33.570Z,900
2017-07-16T14:09:36.033Z,836
2017-07-16T14:10:42.237Z,816
2017-07-16T14:11:44.311Z,828
2017-07-16T14:12:47.625Z,868
2017-07-16T14:13:49.670Z,868
2017-07-16T14:14:52.245Z,856
2017-07-16T14:15:54.366Z,856
2017-07-16T14:16:57.425Z,924
2017-07-16T14:17:59.502Z,892
2017-07-16T14:19:01.268Z,872
2017-07-16T14:20:03.023Z,972
2017-07-16T14:21:05.185Z,1012
2017-07-16T14:22:06.994Z,980
2017-07-16T14:23:08.988Z,1116
2017-07-16T14:24:10.849Z,1104
2017-07-16T14:25:12.608Z,1364
2017-07-16T14:26:14.868Z,1236
2017-07-16T14:27:17.872Z,1080
2017-07-16T14:28:21.278Z,1040
2017-07-16T14:29:23.280Z,892
2017-07-16T14:30:25.339Z,868
2017-07-16T14:31:27.592Z,936
2017-07-16T14:32:41.975Z,768
2017-07-16T14:33:43.273Z,720
2017-07-16T14:34:45.734Z,776
2017-07-16T14:35:48.762Z,956
2017-07-16T14:36:51.832Z,1004
2017-07-16T14:37:53.831Z,1072
2017-07-16T14:39:00.197Z,892
2017-07-16T14:40:02.139Z,1036
2017-07-16T14:41:05.174Z,828
2017-07-16T14:42:07.550Z,892
2017-07-16T14:43:09.968Z,1020
2017-07-16T14:44:24.145Z,1084
2017-07-16T14:45:31.375Z,968
2017-07-16T14:46:34.944Z,1140
2017-07-16T14:47:38.220Z,1052
2017-07-16T14:48:44.164Z,892
2017-07-16T14:49:48.288Z,968
2017-07-16T14:50:50.468Z,808
2017-07-16T15:01:44.666Z,620
2017-07-16T15:03:15.421Z,680
2017-07-16T15:04:18.666Z,712
2017-07-16T15:05:20.773Z,800
2017-07-16T15:06:25.584Z,648
2017-07-16T15:07:28.038Z,784
2017-07-16T15:08:30.485Z,744
2017-07-16T15:09:32.481Z,756
2017-07-16T15:10:34.617Z,636
2017-07-16T15:16:04.506Z,620
2017-07-16T15:17:07.389Z,852
2017-07-16T15:18:09.341Z,832
2017-07-16T15:19:11.165Z,964
2017-07-16T15:20:13.140Z,812
2017-07-16T15:21:15.345Z,608
2017-07-16T15:22:17.183Z,620
2017-07-16T15:23:18.906Z,536
2017-07-16T15:24:20.922Z,444
2017-07-16T15:25:22.654Z,456
2017-07-16T15:26:24.806Z,420
2017-07-16T15:27:26.616Z,496
2017-07-16T15:28:28.384Z,568
2017-07-16T15:32:16.095Z,776
2017-07-16T15:33:20.644Z,860
2017-07-16T15:34:22.338Z,832
2017-07-16T15:35:26.623Z,852
2017-07-16T15:36:28.428Z,1080
2017-07-16T15:37:32.707Z,1152
2017-07-16T15:38:34.824Z,1448
2017-07-16T15:39:41.767Z,1540
2017-07-16T15:40:45.755Z,1876
2017-07-16T15:41:47.546Z,2152
2017-07-16T15:42:50.122Z,2716
2017-07-16T15:43:52.508Z,2992
2017-07-16T15:44:54.711Z,3168
2017-07-16T15:45:56.472Z,3008
2017-07-16T15:46:58.355Z,3424
2017-07-16T15:48:01.648Z,3684
2017-07-16T15:49:03.429Z,3528
2017-07-16T15:50:07.398Z,3192
2017-07-16T15:51:10.030Z,4000
2017-07-16T15:52:11.728Z,4680
2017-07-16T15:53:14.280Z,4436
2017-07-16T15:54:16.128Z,4060
2017-07-16T15:55:17.958Z,3524
2017-07-16T15:56:19.883Z,3076
2017-07-16T15:57:33.552Z,3108
2017-07-16T15:58:35.576Z,2956
2017-07-16T15:59:38.557Z,3128
2017-07-16T16:00:40.580Z,2868
2017-07-16T16:01:43.172Z,2980
2017-07-16T16:02:45.043Z,2736
2017-07-16T16:03:47.717Z,2440
2017-07-16T16:04:49.491Z,2664
2017-07-16T16:05:51.358Z,2860
2017-07-16T16:06:53.088Z,3008
2017-07-16T16:07:55.081Z,3048
2017-07-16T16:08:59.396Z,2296
2017-07-16T16:10:01.373Z,2236
2017-07-16T16:11:03.369Z,2472
2017-07-16T16:12:05.416Z,1836
2017-07-16T16:13:07.335Z,1516
2017-07-16T16:14:09.709Z,1324
2017-07-16T16:15:11.454Z,1504
2017-07-16T16:16:14.435Z,2232
2017-07-16T16:17:16.498Z,2544
2017-07-16T16:18:20.175Z,3024
2017-07-16T16:19:22.686Z,2884
2017-07-16T16:20:25.148Z,3276
2017-07-16T16:21:27.171Z,2600
2017-07-16T16:22:30.800Z,2176
2017-07-16T16:23:33.263Z,2236
2017-07-16T16:24:35.829Z,1908
2017-07-16T16:25:38.468Z,1804
2017-07-16T16:26:40.472Z,1744
2017-07-16T16:27:42.481Z,1516
2017-07-16T16:28:45.351Z,1512
2017-07-16T16:29:47.621Z,1496
2017-07-16T16:30:49.586Z,1212
2017-07-16T16:31:51.619Z,976
2017-07-16T16:32:53.800Z,1000
2017-07-16T16:34:40.215Z,1020
2017-07-16T16:35:43.316Z,1032
2017-07-16T16:36:47.456Z,1056
2017-07-16T16:37:49.490Z,996
2017-07-16T16:38:52.046Z,1016
2017-07-16T16:39:54.311Z,1152
2017-07-16T16:40:58.920Z,1412
2017-07-16T16:42:00.896Z,1500
2017-07-16T16:43:03.721Z,1524
2017-07-16T16:44:05.777Z,1544
2017-07-16T16:45:07.809Z,1524
2017-07-16T16:46:09.926Z,1456
2017-07-16T16:47:13.381Z,1404
2017-07-16T16:48:15.294Z,1248
2017-07-16T16:49:17.225Z,1124
2017-07-16T16:50:21.376Z,1056
2017-07-16T16:52:10.369Z,1184
2017-07-16T16:53:12.158Z,1232
2017-07-16T16:54:16.170Z,1224
2017-07-16T16:55:17.975Z,1212
2017-07-16T16:56:19.842Z,1232
2017-07-16T16:57:23.673Z,1256
2017-07-16T16:58:26.150Z,1296
2017-07-16T16:59:29.024Z,1320
2017-07-16T17:00:31.111Z,1268
2017-07-16T17:01:32.940Z,1256
2017-07-16T17:03:32.665Z,1156
2017-07-16T17:04:35.461Z,1076
2017-07-16T17:05:37.436Z,1016
2017-07-16T17:06:39.457Z,940
2017-07-16T17:07:41.675Z,932
2017-07-16T17:08:43.718Z,948
2017-07-16T17:09:46.944Z,936
2017-07-16T17:10:48.956Z,916
2017-07-16T17:11:51.226Z,876
2017-07-16T17:12:54.961Z,760
2017-07-16T17:13:56.978Z,676
2017-07-16T17:14:58.984Z,668
2017-07-16T17:16:00.927Z,704
2017-07-16T17:17:02.960Z,752
2017-07-16T17:18:05.387Z,744
2017-07-16T17:19:08.315Z,716
2017-07-16T17:21:43.296Z,604
2017-07-16T17:22:51.876Z,528
2017-07-16T17:23:55.438Z,460
2017-07-16T17:24:57.529Z,420
2017-07-16T17:26:01.148Z,416
2017-07-16T17:27:03.131Z,428
2017-07-16T17:28:05.145Z,388
2017-07-16T17:29:07.491Z,364
2017-07-16T17:30:11.397Z,332
2017-07-16T17:31:13.565Z,312
2017-07-16T17:32:15.543Z,288
2017-07-16T17:33:19.677Z,228
2017-07-16T17:34:22.090Z,200
2017-07-16T17:41:07.324Z,276
2017-07-16T17:42:09.440Z,244
2017-07-16T17:43:11.465Z,196
2017-07-16T17:44:58.241Z,180
2017-07-16T17:46:00.321Z,192
2017-07-16T17:47:02.854Z,156
2017-07-16T17:48:05.832Z,148
2017-07-16T17:49:07.904Z,144
2017-07-16T17:50:09.929Z,136
2017-07-16T17:51:11.936Z,144
2017-07-16T17:52:14.292Z,132
2017-07-16T17:53:16.217Z,112
2017-07-16T17:54:18.222Z,116
2017-07-16T17:55:20.182Z,148
2017-07-16T17:56:22.307Z,168
2017-07-16T17:57:24.677Z,204
2017-07-16T17:58:26.697Z,228
2017-07-16T17:59:28.701Z,208
2017-07-16T18:00:30.703Z,176
2017-07-16T18:01:32.696Z,148
2017-07-16T18:02:35.035Z,128
2017-07-16T18:03:37.026Z,92
2017-07-16T18:04:39.789Z,68
2017-07-16T18:05:41.723Z,76
2017-07-16T18:06:43.673Z,72
2017-07-16T18:07:45.999Z,64
2017-07-16T18:08:47.967Z,76
2017-07-16T18:09:50.058Z,92
2017-07-16T18:10:52.088Z,124
2017-07-16T18:11:54.103Z,144
2017-07-16T18:12:56.611Z,128
2017-07-16T18:13:58.576Z,96
2017-07-16T18:15:00.613Z,72
2017-07-16T18:16:44.721Z,64
2017-07-16T18:18:10.015Z,60
2017-07-16T18:47:55.104Z,40
2017-07-16T19:10:25.288Z,20
2017-07-16T19:11:27.327Z,24
2017-07-16T19:12:29.307Z,28
2017-07-16T19:13:32.774Z,32
